ADDS METAR Data INFO
IDs: Format: Raw Decoded Include TAF

Data at: 0221 UTC 14 Dec 2017

KOKV 140215Z AUTO 00000KT 10SM SCT080 OVC100 00/M11 A2960 RMK AO2
KOKV 140155Z AUTO 17003KT 10SM SCT045 SCT065 OVC110 M01/M11 A2960 RMK AO2
KOKV 140135Z AUTO 16003KT 10SM SCT045 BKN075 OVC110 00/M11 A2958 RMK AO2
KOKV 140115Z AUTO 12004KT 10SM SCT050 BKN060 OVC070 00/M11 A2958 RMK AO2
KOKV 140055Z AUTO 14005KT 10SM BKN050 OVC075 00/M10 A2960 RMK AO2
KOKV 140035Z AUTO 13005KT 10SM BKN060 BKN070 OVC085 M01/M08 A2961 RMK AO2
KOKV 140015Z AUTO 13004KT 10SM SCT025 BKN070 OVC090 M01/M07 A2962 RMK AO2
KOKV 132355Z AUTO 17004KT 7SM -SN SCT020 BKN039 OVC047 M01/M07 A2964 RMK AO2
KOKV 132335Z AUTO 21007KT 10SM -SN SCT031 BKN038 OVC047 M01/M07 A2966 RMK AO2
KOKV 132315Z AUTO 19005G14KT 5SM -SN SCT026 BKN033 OVC048 M01/M06 A2967 RMK AO2
KOKV 132255Z AUTO 20004KT 10SM SCT029 SCT038 OVC050 00/M09 A2967 RMK AO2
KOKV 132235Z AUTO 26004KT 10SM SCT018 BKN039 OVC050 M01/M11 A2968 RMK AO2
KOKV 132215Z AUTO 13003KT 10SM BKN050 OVC070 M01/M11 A2969 RMK AO2
KOKV 132155Z AUTO 00000KT 10SM SCT050 OVC080 00/M12 A2969 RMK AO2
KOKV 132135Z AUTO 18003KT 10SM BKN048 OVC080 00/M13 A2970 RMK AO2
KOKV 132115Z AUTO 17003KT 10SM OVC048 00/M13 A2971 RMK AO2
KOKV 132055Z AUTO 18005KT 10SM OVC048 00/M13 A2972 RMK AO2
KOKV 132035Z AUTO 23004KT 10SM OVC050 00/M13 A2972 RMK AO2
KOKV 132015Z AUTO 26006KT 10SM BKN050 00/M13 A2972 RMK AO2
KOKV 131955Z AUTO 26007KT 10SM CLR 00/M13 A2972 RMK AO2
KOKV 131935Z AUTO 30007KT 10SM CLR 00/M13 A2972 RMK AO2
KOKV 131915Z AUTO 29011KT 10SM CLR 00/M13 A2973 RMK AO2
KOKV 131855Z AUTO 28006KT 10SM CLR M01/M14 A2974 RMK AO2
KOKV 131835Z AUTO 27009G14KT 10SM CLR M01/M14 A2975 RMK AO2
KOKV 131815Z AUTO 25010KT 10SM CLR M01/M14 A2976 RMK AO2
KOKV 131755Z AUTO 26007G17KT 10SM SCT048 M01/M13 A2977 RMK AO2
KOKV 131735Z AUTO 30008G16KT 10SM CLR M02/M13 A2977 RMK AO2
KOKV 131715Z AUTO 30012KT 10SM CLR M02/M13 A2977 RMK AO2
KOKV 131655Z AUTO 29017G25KT 10SM CLR M03/M13 A2978 RMK AO2
KOKV 131635Z AUTO 28019G24KT 10SM CLR M03/M14 A2980 RMK AO2
KOKV 131615Z AUTO 29015G23KT 10SM SCT047 M03/M14 A2981 RMK AO2
KOKV 131555Z AUTO 28017G24KT 10SM SCT047 M03/M15 A2982 RMK AO2
KOKV 131535Z AUTO 30016G21KT 10SM CLR M03/M15 A2981 RMK AO2
KOKV 131515Z AUTO 31016KT 10SM SCT045 M04/M14 A2982 RMK AO2
KOKV 131455Z AUTO 31014KT 10SM SCT045 M05/M14 A2983 RMK AO2
KOKV 131435Z AUTO 27016G21KT 10SM SCT037 BKN043 M05/M14 A2983 RMK AO2
KOKV 131415Z AUTO 30020G23KT 10SM SCT035 BKN042 BKN048 M05/M15 A2983 RMK AO2
KOKV 131355Z AUTO 30011KT 10SM SCT037 SCT044 M06/M15 A2983 RMK AO2
KOKV 131335Z AUTO 29017G28KT 10SM SCT047 M06/M16 A2983 RMK AO2
KOKV 131315Z AUTO 29015G21KT 10SM SCT047 M07/M16 A2983 RMK AO2
KOKV 131255Z AUTO 29017G25KT 10SM CLR M07/M17 A2982 RMK AO2
KOKV 131235Z AUTO 30019G23KT 10SM CLR M07/M17 A2982 RMK AO2
KOKV 131215Z AUTO 29018G29KT 10SM CLR M07/M18 A2981 RMK AO2
KOKV 131155Z AUTO 29020G33KT 10SM CLR M07/M18 A2980 RMK AO2
KOKV 131135Z AUTO 29018G28KT 10SM CLR M07/M18 A2980 RMK AO2
KOKV 131115Z AUTO 30024G34KT 10SM CLR M07/M18 A2979 RMK AO2
KOKV 131055Z AUTO 30026G33KT 10SM CLR M07/M18 A2978 RMK AO2
KOKV 131035Z AUTO 29019G27KT 10SM CLR M07/M18 A2978 RMK AO2
KOKV 131015Z AUTO 29022G27KT 10SM CLR M07/M18 A2978 RMK AO2
KOKV 130955Z AUTO 29018G26KT 10SM CLR M07/M18 A2978 RMK AO2
KOKV 130935Z AUTO 29020G31KT 10SM SCT060 M07/M18 A2978 RMK AO2
KOKV 130915Z AUTO 30016G31KT 10SM SCT060 M07/M18 A2977 RMK AO2
KOKV 130855Z AUTO 30021G27KT 10SM SCT060 M07/M18 A2977 RMK AO2
KOKV 130835Z AUTO 29011G16KT 10SM SCT050 M07/M18 A2978 RMK AO2
KOKV 130815Z AUTO 29021G27KT 10SM SCT050 M07/M18 A2977 RMK AO2
KOKV 130755Z AUTO 29012G21KT 10SM BKN050 M07/M18 A2977 RMK AO2
KOKV 130735Z AUTO 31017G25KT 10SM BKN050 M07/M18 A2976 RMK AO2
KOKV 130715Z AUTO 30018G25KT 10SM OVC050 M07/M17 A2975 RMK AO2
KOKV 130655Z AUTO 29010G24KT 10SM OVC050 M07/M17 A2976 RMK AO2
KOKV 130635Z AUTO 30015G23KT 10SM OVC055 M07/M17 A2975 RMK AO2
KOKV 130615Z AUTO 30012G24KT 10SM BKN055 OVC065 M07/M18 A2975 RMK AO2
KOKV 130555Z AUTO 30015G23KT 10SM BKN055 M07/M18 A2974 RMK AO2
KOKV 130535Z AUTO 31013G25KT 10SM BKN055 M07/M17 A2974 RMK AO2
KOKV 130515Z AUTO 31015G28KT 10SM OVC060 M07/M17 A2974 RMK AO2
KOKV 130455Z AUTO 30014G23KT 10SM OVC050 M06/M17 A2974 RMK AO2
KOKV 130435Z AUTO 31015G29KT 10SM OVC050 M06/M17 A2973 RMK AO2
KOKV 130415Z AUTO 31019G26KT 10SM BKN048 OVC060 M06/M16 A2973 RMK AO2
KOKV 130355Z AUTO 30023G33KT 10SM BKN050 OVC060 M06/M15 A2973 RMK AO2
KOKV 130335Z AUTO 28024G31KT 10SM BKN050 M06/M15 A2973 RMK AO2
KOKV 130317Z AUTO 28020G29KT 10SM BKN050 BKN065 M06/M16 A2973 RMK AO2
KOKV 130255Z AUTO 30016G23KT 10SM OVC055 M06/M16 A2973 RMK AO2
KOKV 130235Z AUTO 30014G26KT 10SM BKN055 M06/M17 A2973 RMK AO2
KOKV 130215Z AUTO 31019G24KT 10SM SCT055 M06/M16 A2973 RMK AO2
KOKV 130155Z AUTO 31013G22KT 10SM SCT047 BKN060 OVC065 M05/M16 A2974 RMK AO2
KOKV 130135Z AUTO 31024G31KT 10SM BKN048 BKN060 M05/M15 A2974 RMK AO2
KOKV 130115Z AUTO 31016G24KT 10SM SCT050 M05/M15 A2974 RMK AO2
KOKV 130055Z AUTO 30016G30KT 10SM CLR M05/M15 A2974 RMK AO2
KOKV 130035Z AUTO 30015G26KT 10SM SCT050 M04/M15 A2973 RMK AO2
KOKV 130015Z AUTO 31019G27KT 10SM BKN050 M03/M14 A2972 RMK AO2
KOKV 122355Z AUTO 31017G26KT 10SM SCT039 SCT050 M03/M13 A2971 RMK AO2
KOKV 122335Z AUTO 31013G21KT 10SM BKN035 OVC043 M02/M09 A2970 RMK AO2
KOKV 122315Z AUTO 32012G22KT 7SM -SN SCT026 BKN034 OVC075 M02/M07 A2969 RMK AO2
KOKV 122255Z AUTO 30016G23KT 10SM -SN SCT023 SCT032 BKN055 M02/M07 A2968 RMK AO2
KOKV 122235Z AUTO 29015G24KT 10SM SCT034 SCT041 BKN075 M01/M07 A2966 RMK AO2
KOKV 122215Z AUTO 28015G24KT 7SM -SN SCT008 BKN040 OVC065 00/M07 A2966 RMK AO2
KOKV 122155Z AUTO 30021G27KT 10SM SCT043 BKN060 BKN080 00/M08 A2964 RMK AO2
KOKV 122135Z AUTO 31009G20KT 10SM SCT045 SCT050 SCT110 00/M08 A2963 RMK AO2
KOKV 122115Z AUTO 30016G32KT 10SM SCT031 BKN044 OVC110 00/M08 A2962 RMK AO2
KOKV 122055Z AUTO 31018G26KT 10SM SCT035 OVC044 01/M07 A2960 RMK AO2
KOKV 122035Z AUTO 31018G25KT 10SM SCT035 BKN070 OVC090 01/M06 A2959 RMK AO2 LTG DSNT SE
KOKV 122015Z AUTO 30015G19KT 10SM SCT048 BKN070 OVC090 01/M05 A2958 RMK AO2
KOKV 121955Z AUTO 30019G24KT 10SM BKN043 OVC049 01/M05 A2958 RMK AO2
KOKV 121935Z AUTO 32016G23KT 7SM -SN BKN037 OVC043 01/M04 A2958 RMK AO2
KOKV 121915Z AUTO 31016G24KT 10SM SCT037 BKN060 OVC070 03/M03 A2955 RMK AO2
KOKV 121855Z AUTO 30017G21KT 10SM SCT046 BKN060 OVC090 03/M04 A2955 RMK AO2
KOKV 121835Z AUTO 32016G21KT 10SM BKN038 BKN045 OVC050 05/M02 A2955 RMK AO2
KOKV 121815Z AUTO 30017G21KT 10SM BKN038 OVC045 03/M02 A2955 RMK AO2
KOKV 121755Z AUTO 29015G22KT 10SM -DZ OVC043 03/M02 A2955 RMK AO2
KOKV 121735Z AUTO 30016G20KT 10SM -DZ OVC039 03/M02 A2955 RMK AO2
KOKV 121715Z AUTO 29012G20KT 10SM OVC039 05/M02 A2956 RMK AO2
KOKV 121655Z AUTO 30015G20KT 10SM OVC041 05/M02 A2956 RMK AO2
KOKV 121635Z AUTO 29017G22KT 10SM OVC041 05/M02 A2958 RMK AO2
KOKV 121615Z AUTO 30013G20KT 10SM BKN047 OVC060 06/M02 A2958 RMK AO2
KOKV 121555Z AUTO 30011G16KT 10SM BKN047 OVC060 06/M02 A2958 RMK AO2
KOKV 121535Z AUTO 29011KT 10SM OVC050 07/M02 A2958 RMK AO2
KOKV 121515Z AUTO 29010KT 10SM OVC050 07/M02 A2958 RMK AO2
KOKV 121455Z AUTO 27014G18KT 10SM BKN060 OVC070 06/M02 A2958 RMK AO2
KOKV 121435Z AUTO 00000KT 10SM OVC070 05/M01 A2958 RMK AO2